createdAt,value
2023-03-04T00:27:42.042Z,100.00
2023-03-04T00:39:32.543Z,100.00
2023-03-04T00:50:41.688Z,100.00
2023-03-04T00:56:38.297Z,100.00
2023-03-04T01:01:40.094Z,100.00
2023-03-04T01:13:51.616Z,100.00
2023-03-04T01:18:53.022Z,100.00
2023-03-04T01:23:49.432Z,100.00
2023-03-04T01:30:09.152Z,100.00
2023-03-04T01:34:47.313Z,100.00
2023-03-04T01:39:51.237Z,100.00
2023-03-04T01:44:46.472Z,100.00
2023-03-04T01:49:52.379Z,100.00
2023-03-04T01:54:50.807Z,100.00
2023-03-04T01:59:47.155Z,100.00
2023-03-04T02:04:55.403Z,100.00
2023-03-04T02:10:16.762Z,100.00
2023-03-04T02:15:24.487Z,100.00
2023-03-04T02:20:55.585Z,100.00
2023-03-04T02:33:05.478Z,100.00
2023-03-04T03:00:03.279Z,99.88
2023-03-04T03:32:01.587Z,99.37
2023-03-04T03:44:00.922Z,99.55
2023-03-04T04:02:53.062Z,100.00
2023-03-04T04:08:17.393Z,99.64
2023-03-04T04:26:02.466Z,99.02
2023-03-04T04:39:02.006Z,99.20
2023-03-04T04:44:04.360Z,99.04
2023-03-04T04:56:46.288Z,99.16
2023-03-04T05:09:08.155Z,99.97
2023-03-04T05:22:04.669Z,99.37
2023-03-04T05:32:07.367Z,98.43
2023-03-04T05:56:10.523Z,97.34
2023-03-04T06:01:05.346Z,97.30
2023-03-04T06:06:00.376Z,97.34
2023-03-04T06:10:54.809Z,97.56
2023-03-04T06:15:48.272Z,98.15
2023-03-04T06:20:41.527Z,98.73
2023-03-04T06:25:36.720Z,99.21
2023-03-04T06:30:30.494Z,99.28
2023-03-04T06:35:23.941Z,98.86
2023-03-04T06:40:17.443Z,98.68
2023-03-04T06:45:13.451Z,98.66
2023-03-04T06:50:09.789Z,97.97
2023-03-04T06:55:04.409Z,97.65
2023-03-04T06:59:57.976Z,97.49
2023-03-04T07:04:52.892Z,97.45
2023-03-04T07:09:46.361Z,96.94
2023-03-04T07:14:39.667Z,95.10
2023-03-04T07:19:38.765Z,94.07
2023-03-04T07:24:35.196Z,92.70
2023-03-04T07:29:28.573Z,91.57
2023-03-04T07:34:22.154Z,90.14
2023-03-04T07:39:18.079Z,89.89
2023-03-04T07:44:14.467Z,91.14
2023-03-04T07:49:07.825Z,90.72
2023-03-04T07:54:02.355Z,89.76
2023-03-04T07:58:56.454Z,89.23
2023-03-04T08:03:51.373Z,89.17
2023-03-04T08:08:45.125Z,88.62
2023-03-04T08:13:38.625Z,86.70
2023-03-04T08:18:32.170Z,84.62
2023-03-04T08:23:26.879Z,84.17
2023-03-04T08:28:20.356Z,84.44
2023-03-04T08:33:13.755Z,85.05
2023-03-04T08:38:10.152Z,85.75
2023-03-04T08:43:04.915Z,87.60
2023-03-04T08:47:58.189Z,85.76
2023-03-04T08:52:51.516Z,82.96
2023-03-04T08:57:45.031Z,81.19
2023-03-04T09:02:40.971Z,79.75
2023-03-04T09:07:34.330Z,79.44
2023-03-04T09:12:27.952Z,80.58
2023-03-04T09:17:21.312Z,82.28
2023-03-04T09:22:16.079Z,82.54
2023-03-04T09:27:11.047Z,81.88
2023-03-04T09:32:07.096Z,83.43
2023-03-04T09:37:00.402Z,82.21
2023-03-04T09:41:58.549Z,81.58
2023-03-04T09:46:53.806Z,83.00
2023-03-04T09:51:58.865Z,78.94
2023-03-04T09:57:16.167Z,76.76
2023-03-04T10:02:29.248Z,78.09
2023-03-04T10:07:29.753Z,78.62
2023-03-04T10:12:30.391Z,76.76
2023-03-04T10:18:32.360Z,73.88
2023-03-04T10:23:28.632Z,73.38
2023-03-04T10:28:29.176Z,73.54
2023-03-04T10:33:24.903Z,71.33
2023-03-04T10:38:22.054Z,69.11
2023-03-04T10:43:19.550Z,65.94
2023-03-04T10:48:25.251Z,66.94
2023-03-04T10:53:32.369Z,64.31
2023-03-04T10:58:26.978Z,67.21
2023-03-04T11:03:30.962Z,63.54
2023-03-04T11:08:28.147Z,64.58
2023-03-04T11:13:26.090Z,65.61
2023-03-04T11:18:24.513Z,65.83
2023-03-04T11:23:24.727Z,64.49
2023-03-04T11:28:23.909Z,66.39
2023-03-04T11:33:25.291Z,66.93
2023-03-04T11:38:22.265Z,65.06
2023-03-04T11:43:19.304Z,66.29
2023-03-04T11:48:24.503Z,65.03
2023-03-04T11:53:32.216Z,65.08
2023-03-04T11:58:46.321Z,65.84
2023-03-04T12:04:06.592Z,65.40
2023-03-04T12:09:22.608Z,62.22
2023-03-04T12:14:33.269Z,60.98
2023-03-04T12:19:34.919Z,60.66
2023-03-04T12:25:04.757Z,57.97
2023-03-04T12:30:07.071Z,55.12
2023-03-04T12:35:26.769Z,56.93
2023-03-04T12:40:36.459Z,58.01
2023-03-04T12:45:49.568Z,61.01
2023-03-04T12:50:53.941Z,62.63
2023-03-04T12:55:54.768Z,58.79
2023-03-04T13:01:04.981Z,57.39
2023-03-04T13:06:08.076Z,56.88
2023-03-04T13:11:41.780Z,59.98
2023-03-04T13:16:40.370Z,56.98
2023-03-04T13:21:45.449Z,57.63
2023-03-04T13:26:40.654Z,58.41
2023-03-04T13:31:34.079Z,59.32
2023-03-04T13:37:03.831Z,61.42
2023-03-04T13:41:59.388Z,61.86
2023-03-04T13:46:56.338Z,64.26
2023-03-04T13:51:50.103Z,61.92
2023-03-04T13:56:46.565Z,62.64
2023-03-04T14:01:56.926Z,60.93
2023-03-04T14:06:54.646Z,61.92
2023-03-04T14:11:49.975Z,62.93
2023-03-04T14:16:50.394Z,63.07
2023-03-04T14:21:48.157Z,63.93
2023-03-04T14:26:44.272Z,63.68
2023-03-04T14:31:38.489Z,64.74
2023-03-04T14:36:34.349Z,64.83
2023-03-04T14:41:34.256Z,65.73
2023-03-04T14:46:31.201Z,65.85
2023-03-04T14:51:34.879Z,65.42
2023-03-04T14:56:31.065Z,65.11
2023-03-04T15:01:33.632Z,64.32
2023-03-04T15:06:35.309Z,64.84
2023-03-04T15:11:34.067Z,65.52
2023-03-04T15:16:30.687Z,66.00
2023-03-04T15:21:33.727Z,66.69
2023-03-04T15:26:27.485Z,66.79
2023-03-04T15:31:24.188Z,66.73
2023-03-04T15:36:22.020Z,67.32
2023-03-04T15:41:19.279Z,67.79
2023-03-04T15:46:13.328Z,68.55
2023-03-04T15:51:16.120Z,68.82
2023-03-04T15:56:13.450Z,69.56
2023-03-04T16:01:16.128Z,70.05
2023-03-04T16:06:13.058Z,71.39
2023-03-04T16:11:06.990Z,72.23
2023-03-04T16:16:00.634Z,73.21
2023-03-04T16:20:54.129Z,73.95
2023-03-04T16:25:51.974Z,74.77
2023-03-04T16:30:45.436Z,75.08
2023-03-04T16:35:45.510Z,75.56
2023-03-04T16:40:40.736Z,76.06
2023-03-04T16:45:37.917Z,76.39
2023-03-04T16:50:31.530Z,76.42
2023-03-04T16:55:27.270Z,76.27
2023-03-04T17:00:23.123Z,76.38
2023-03-04T17:05:20.876Z,76.95
2023-03-04T17:10:15.331Z,77.20
2023-03-04T17:15:09.657Z,77.94
2023-03-04T17:20:04.905Z,78.55
2023-03-04T17:25:02.939Z,78.75
2023-03-04T17:29:56.302Z,79.03
2023-03-04T17:34:49.735Z,78.34
2023-03-04T17:39:45.561Z,78.14
2023-03-04T17:44:40.512Z,77.39
2023-03-04T17:49:34.343Z,77.29
2023-03-04T17:54:28.438Z,77.75
2023-03-04T17:59:21.747Z,77.69
2023-03-04T18:04:16.981Z,78.13
2023-03-04T18:09:10.532Z,77.85
2023-03-04T18:14:04.258Z,77.99
2023-03-04T18:18:59.938Z,77.72
2023-03-04T18:23:55.242Z,77.09
2023-03-04T18:28:48.576Z,77.21
2023-03-04T18:33:43.535Z,77.13
2023-03-04T18:38:37.031Z,77.41
2023-03-04T18:43:31.924Z,77.25
2023-03-04T18:48:25.823Z,77.49
2023-03-04T18:53:19.720Z,77.81
2023-03-04T18:58:17.728Z,77.52
2023-03-04T19:03:26.000Z,77.44
2023-03-04T19:08:19.531Z,77.15
2023-03-04T19:13:18.896Z,77.25
2023-03-04T19:18:16.420Z,76.94
2023-03-04T19:23:10.515Z,76.93
2023-03-04T19:28:08.724Z,76.49
2023-03-04T19:33:02.254Z,76.32
2023-03-04T19:37:58.900Z,76.66
2023-03-04T19:42:52.380Z,76.36
2023-03-04T19:47:50.613Z,76.49
2023-03-04T19:52:46.686Z,76.35
2023-03-04T19:57:44.244Z,76.33
2023-03-04T20:02:42.392Z,76.35
2023-03-04T20:07:36.034Z,76.46
2023-03-04T20:12:35.985Z,76.61
2023-03-04T20:17:38.042Z,76.77
2023-03-04T20:22:36.514Z,77.29
2023-03-04T20:27:33.898Z,77.40
2023-03-04T20:32:27.640Z,77.55
2023-03-04T20:37:30.454Z,77.47
2023-03-04T20:42:28.985Z,77.58
2023-03-04T20:47:23.013Z,77.73
2023-03-04T20:52:19.577Z,77.37
2023-03-04T20:57:14.503Z,77.03
2023-03-04T21:02:10.272Z,76.52
2023-03-04T21:07:04.387Z,76.17
2023-03-04T21:12:00.800Z,75.94
2023-03-04T21:17:03.261Z,75.56
2023-03-04T21:21:58.099Z,75.12
2023-03-04T21:26:54.445Z,74.57
2023-03-04T21:31:50.016Z,74.68
2023-03-04T21:36:45.175Z,74.42
2023-03-04T21:41:38.905Z,74.50
2023-03-04T21:46:35.762Z,74.72
2023-03-04T21:51:29.746Z,74.71
2023-03-04T21:56:26.567Z,74.57
2023-03-04T22:01:21.795Z,74.44
2023-03-04T22:06:15.309Z,74.67
2023-03-04T22:11:14.398Z,74.74
2023-03-04T22:16:11.942Z,75.08
2023-03-04T22:21:10.818Z,75.45
2023-03-04T22:26:07.230Z,75.94
2023-03-04T22:31:03.202Z,75.88
2023-03-04T22:36:01.433Z,75.99
2023-03-04T22:40:57.914Z,75.75
2023-03-04T22:46:01.990Z,75.85
2023-03-04T22:50:57.305Z,75.76
2023-03-04T22:56:03.121Z,75.21
2023-03-04T23:01:08.751Z,75.03
2023-03-04T23:06:04.028Z,74.93
2023-03-04T23:11:02.080Z,74.63
2023-03-04T23:16:09.926Z,74.67
2023-03-04T23:21:07.229Z,74.83
2023-03-04T23:26:17.450Z,74.86
2023-03-04T23:31:12.596Z,74.55
2023-03-04T23:36:15.211Z,74.72
2023-03-04T23:41:12.837Z,74.58
2023-03-04T23:46:15.954Z,74.45
2023-03-04T23:51:11.035Z,74.19
2023-03-04T23:56:05.821Z,73.88
